createdAt,value
2023-04-06T00:01:18.400Z,9.77
2023-04-06T00:03:45.633Z,9.82
2023-04-06T00:06:13.239Z,9.48
2023-04-06T00:08:40.569Z,9.18
2023-04-06T00:11:07.761Z,9.35
2023-04-06T00:13:34.882Z,7.70
2023-04-06T00:16:02.204Z,10.07
2023-04-06T00:18:29.577Z,7.28
2023-04-06T00:20:59.418Z,9.35
2023-04-06T00:23:26.622Z,7.40
2023-04-06T00:25:53.874Z,7.68
2023-04-06T00:28:26.373Z,7.53
2023-04-06T00:33:23.932Z,6.55
2023-04-06T00:35:51.691Z,7.18
2023-04-06T00:38:19.395Z,7.47
2023-04-06T00:40:46.875Z,7.32
2023-04-06T00:43:14.802Z,6.85
2023-04-06T00:45:43.558Z,6.00
2023-04-06T00:48:15.061Z,4.50
2023-04-06T00:50:42.300Z,3.45
2023-04-06T00:53:09.489Z,3.45
2023-04-06T00:55:37.144Z,3.88
2023-04-06T00:58:05.281Z,4.13
2023-04-06T01:00:39.373Z,3.35
2023-04-06T01:03:08.028Z,3.10
2023-04-06T01:05:41.766Z,3.80
2023-04-06T01:08:17.129Z,2.40
2023-04-06T01:10:44.476Z,2.63
2023-04-06T01:13:22.427Z,2.50
2023-04-06T01:16:01.886Z,2.75
2023-04-06T01:18:43.384Z,2.33
2023-04-06T01:21:18.031Z,2.30
2023-04-06T01:23:59.546Z,2.70
2023-04-06T01:26:35.465Z,2.63
2023-04-06T01:29:07.035Z,2.72
2023-04-06T01:31:34.405Z,2.20
2023-04-06T01:34:01.600Z,2.30
2023-04-06T01:36:28.823Z,2.67
2023-04-06T01:39:04.770Z,2.60
2023-04-06T01:41:36.130Z,2.00
2023-04-06T01:44:03.781Z,2.38
2023-04-06T01:46:31.990Z,2.63
2023-04-06T01:49:00.528Z,2.53
2023-04-06T01:51:36.100Z,2.50
2023-04-06T01:54:06.497Z,2.47
2023-04-06T01:56:54.115Z,1.85
2023-04-06T01:59:28.983Z,2.00
2023-04-06T02:01:56.990Z,1.90
2023-04-06T02:04:26.242Z,2.13
2023-04-06T02:07:01.193Z,2.33
2023-04-06T02:09:30.592Z,2.20
2023-04-06T02:11:57.995Z,1.75
2023-04-06T02:14:26.880Z,1.60
2023-04-06T02:16:57.400Z,2.25
2023-04-06T02:19:24.983Z,1.60
2023-04-06T02:21:52.414Z,1.63
2023-04-06T02:24:19.674Z,1.80
2023-04-06T02:26:46.780Z,1.55
2023-04-06T02:29:13.908Z,1.45
2023-04-06T02:31:41.268Z,1.40
2023-04-06T02:34:12.057Z,1.50
2023-04-06T02:36:42.965Z,1.50
2023-04-06T02:39:10.258Z,1.58
2023-04-06T02:41:37.652Z,1.90
2023-04-06T02:44:09.805Z,1.45
2023-04-06T02:46:43.468Z,1.48
2023-04-06T02:49:10.826Z,2.22
2023-04-06T02:51:38.207Z,1.67
2023-04-06T02:54:18.946Z,1.77
2023-04-06T02:56:46.424Z,1.42
2023-04-06T02:59:14.286Z,1.80
2023-04-06T03:01:47.440Z,1.75
2023-04-06T03:04:14.731Z,1.50
2023-04-06T03:06:41.935Z,1.90
2023-04-06T03:09:20.828Z,1.67
2023-04-06T03:11:48.148Z,1.25
2023-04-06T03:14:15.843Z,1.35
2023-04-06T03:16:43.137Z,1.60
2023-04-06T03:19:10.692Z,0.95
2023-04-06T03:21:38.023Z,0.80
2023-04-06T03:24:06.510Z,0.75
2023-04-06T03:26:33.775Z,0.80
2023-04-06T03:29:05.637Z,0.70
2023-04-06T03:31:33.656Z,1.35
2023-04-06T03:34:07.107Z,0.50
2023-04-06T03:36:38.829Z,0.50
2023-04-06T03:39:06.880Z,0.70
2023-04-06T03:41:37.390Z,0.60
2023-04-06T03:44:12.304Z,0.63
2023-04-06T03:46:39.594Z,0.60
2023-04-06T03:49:07.164Z,0.60
2023-04-06T03:51:34.886Z,1.00
2023-04-06T03:54:02.492Z,0.75
2023-04-06T03:56:29.818Z,0.80
2023-04-06T03:58:57.101Z,0.75
2023-04-06T04:01:24.403Z,1.15
2023-04-06T04:03:52.366Z,1.10
2023-04-06T04:06:19.597Z,0.98
2023-04-06T04:08:46.994Z,1.52
2023-04-06T04:11:14.215Z,2.20
2023-04-06T04:13:41.544Z,1.70
2023-04-06T04:16:10.050Z,1.80
2023-04-06T04:18:37.805Z,1.80
2023-04-06T04:21:06.508Z,1.83
2023-04-06T04:23:34.705Z,1.73
2023-04-06T04:26:03.933Z,1.90
2023-04-06T04:28:31.310Z,2.53
2023-04-06T04:30:58.910Z,2.30
2023-04-06T04:33:26.317Z,1.80
2023-04-06T04:35:56.472Z,2.35
2023-04-06T04:38:26.249Z,3.17
2023-04-06T04:40:56.085Z,3.20
2023-04-06T04:43:23.724Z,3.30
2023-04-06T04:45:51.185Z,3.50
2023-04-06T04:48:40.234Z,2.85
2023-04-06T04:51:08.091Z,3.03
2023-04-06T04:53:54.942Z,3.30
2023-04-06T04:56:26.907Z,3.10
2023-04-06T04:58:59.586Z,3.65
2023-04-06T05:01:30.312Z,3.28
2023-04-06T05:06:29.127Z,3.85
2023-04-06T05:08:56.904Z,3.33
2023-04-06T05:11:24.391Z,3.47
2023-04-06T05:13:57.943Z,4.22
2023-04-06T05:16:26.466Z,3.50
2023-04-06T05:18:54.185Z,3.25
2023-04-06T05:21:21.582Z,3.88
2023-04-06T05:24:03.537Z,4.68
2023-04-06T05:26:32.527Z,4.07
2023-04-06T05:29:06.437Z,4.10
2023-04-06T05:31:37.018Z,4.25
2023-04-06T05:34:04.371Z,4.93
2023-04-06T05:36:34.949Z,3.97
2023-04-06T05:39:08.810Z,5.03
2023-04-06T05:41:42.205Z,6.10
2023-04-06T05:44:11.229Z,4.65
2023-04-06T05:46:41.032Z,5.00
2023-04-06T05:49:12.827Z,4.60
2023-04-06T05:51:40.593Z,5.10
2023-04-06T05:54:08.273Z,6.07
2023-04-06T05:56:35.536Z,5.63
2023-04-06T05:59:03.722Z,5.97
2023-04-06T06:01:32.416Z,4.45
2023-04-06T06:04:02.111Z,5.53
2023-04-06T06:06:32.129Z,5.78
2023-04-06T06:09:28.678Z,6.63
2023-04-06T06:12:14.717Z,5.50
2023-04-06T06:14:42.589Z,6.10
2023-04-06T06:17:10.797Z,6.13
2023-04-06T06:19:38.181Z,6.28
2023-04-06T06:22:08.350Z,4.63
2023-04-06T06:24:40.176Z,4.70
2023-04-06T06:27:08.937Z,6.15
2023-04-06T06:29:38.151Z,4.50
2023-04-06T06:32:05.855Z,5.72
2023-04-06T06:34:33.396Z,4.75
2023-04-06T06:37:03.980Z,5.32
2023-04-06T06:39:31.517Z,5.05
2023-04-06T06:42:02.011Z,5.10
2023-04-06T06:44:51.188Z,4.03
2023-04-06T06:47:18.800Z,4.72
2023-04-06T06:49:45.936Z,3.75
2023-04-06T06:52:13.083Z,4.03
2023-04-06T06:54:40.249Z,4.05
2023-04-06T06:57:07.477Z,3.45
2023-04-06T06:59:35.394Z,3.40
2023-04-06T07:02:02.805Z,3.22
2023-04-06T07:04:30.045Z,4.13
2023-04-06T07:06:57.319Z,3.95
2023-04-06T07:09:24.610Z,3.08
2023-04-06T07:11:51.819Z,3.40
2023-04-06T07:14:19.129Z,3.60
2023-04-06T07:16:48.005Z,3.08
2023-04-06T07:19:16.408Z,3.35
2023-04-06T07:21:43.741Z,3.30
2023-04-06T07:24:11.549Z,3.42
2023-04-06T07:26:38.853Z,3.42
2023-04-06T07:29:06.135Z,3.08
2023-04-06T07:31:34.529Z,3.20
2023-04-06T07:34:01.997Z,3.33
2023-04-06T07:36:29.338Z,3.80
2023-04-06T07:38:56.512Z,3.10
2023-04-06T07:41:25.129Z,2.92
2023-04-06T07:43:52.415Z,2.95
2023-04-06T07:46:19.712Z,3.00
2023-04-06T07:48:46.967Z,2.47
2023-04-06T07:51:16.003Z,3.00
2023-04-06T07:53:45.807Z,2.20
2023-04-06T07:56:16.660Z,2.45
2023-04-06T07:58:44.029Z,3.05
2023-04-06T08:01:11.635Z,2.10
2023-04-06T08:03:39.283Z,2.40
2023-04-06T08:06:07.119Z,2.35
2023-04-06T08:08:34.372Z,2.10
2023-04-06T08:11:03.699Z,2.72
2023-04-06T08:13:31.692Z,2.40
2023-04-06T08:15:59.916Z,1.60
2023-04-06T08:18:27.178Z,1.58
2023-04-06T08:20:55.783Z,1.60
2023-04-06T08:23:23.121Z,1.65
2023-04-06T08:25:50.541Z,1.60
2023-04-06T08:28:17.727Z,1.33
2023-04-06T08:30:44.941Z,2.47
2023-04-06T08:33:13.072Z,1.50
2023-04-06T08:35:40.643Z,2.17
2023-04-06T08:38:08.315Z,1.60
2023-04-06T08:40:39.814Z,2.38
2023-04-06T08:43:13.874Z,1.95
2023-04-06T08:45:42.781Z,1.25
2023-04-06T08:48:10.272Z,1.92
2023-04-06T08:50:39.544Z,1.63
2023-04-06T08:53:08.447Z,2.05
2023-04-06T08:55:36.936Z,2.00
2023-04-06T08:58:07.916Z,1.75
2023-04-06T09:00:39.725Z,2.10
2023-04-06T09:03:08.900Z,1.80
2023-04-06T09:05:40.511Z,2.47
2023-04-06T09:08:07.809Z,1.85
2023-04-06T09:10:36.035Z,1.58
2023-04-06T09:13:07.775Z,1.15
2023-04-06T09:15:35.914Z,2.65
2023-04-06T09:18:03.623Z,2.20
2023-04-06T09:20:31.013Z,2.03
2023-04-06T09:22:58.256Z,2.13
2023-04-06T09:25:27.939Z,2.03
2023-04-06T09:28:06.751Z,2.45
2023-04-06T09:30:37.709Z,2.63
2023-04-06T09:33:05.489Z,2.25
2023-04-06T09:35:34.225Z,1.88
2023-04-06T09:38:12.544Z,1.70
2023-04-06T09:41:00.676Z,1.85
2023-04-06T09:43:29.347Z,2.17
2023-04-06T09:46:04.104Z,2.13
2023-04-06T09:48:36.129Z,2.60
2023-04-06T09:51:07.384Z,2.92
2023-04-06T09:53:38.416Z,2.75
2023-04-06T09:56:14.233Z,2.55
2023-04-06T09:58:44.699Z,2.88
2023-04-06T10:01:16.528Z,2.22
2023-04-06T10:03:57.619Z,2.60
2023-04-06T10:06:30.268Z,2.60
2023-04-06T10:09:02.859Z,2.72
2023-04-06T10:11:30.677Z,2.13
2023-04-06T10:13:58.413Z,2.10
2023-04-06T10:16:26.718Z,2.08
2023-04-06T10:19:03.070Z,3.40
2023-04-06T10:21:32.266Z,2.70
2023-04-06T10:24:02.431Z,2.88
2023-04-06T10:26:29.784Z,1.95
2023-04-06T10:29:02.850Z,2.40
2023-04-06T10:31:30.201Z,2.15
2023-04-06T10:34:03.314Z,2.20
2023-04-06T10:36:35.439Z,2.00
2023-04-06T10:39:05.868Z,1.70
2023-04-06T10:41:35.389Z,1.45
2023-04-06T10:44:04.175Z,1.65
2023-04-06T10:46:32.746Z,2.17
2023-04-06T10:49:14.878Z,15.43
2023-04-06T10:51:42.242Z,2.20
2023-04-06T10:54:12.471Z,1.90
2023-04-06T10:56:40.493Z,1.50
2023-04-06T10:59:08.793Z,1.35
2023-04-06T11:01:36.081Z,3.03
2023-04-06T11:04:04.144Z,1.70
2023-04-06T11:06:33.619Z,1.73
2023-04-06T11:09:04.282Z,1.50
2023-04-06T11:11:31.637Z,1.45
2023-04-06T11:14:00.445Z,1.95
2023-04-06T11:16:31.703Z,1.50
2023-04-06T11:19:02.660Z,1.40
2023-04-06T11:21:44.650Z,1.33
2023-04-06T11:24:14.670Z,1.08
2023-04-06T11:26:52.810Z,1.30
2023-04-06T11:29:22.444Z,1.83
2023-04-06T11:31:52.109Z,1.40
2023-04-06T11:34:24.987Z,1.85
2023-04-06T11:37:05.725Z,2.55
2023-04-06T11:39:38.569Z,1.55
2023-04-06T11:44:36.800Z,1.77
2023-04-06T11:47:05.547Z,1.95
2023-04-06T11:49:34.438Z,3.67
2023-04-06T11:52:02.572Z,2.03
2023-04-06T11:54:39.768Z,2.08
2023-04-06T11:57:07.432Z,2.20
2023-04-06T11:59:35.092Z,1.25
2023-04-06T12:02:06.859Z,1.10
2023-04-06T12:04:34.595Z,1.80
2023-04-06T12:07:02.147Z,1.63
2023-04-06T12:09:29.493Z,1.25
2023-04-06T12:11:57.089Z,3.10
2023-04-06T12:14:24.669Z,3.00
2023-04-06T12:16:51.924Z,1.90
2023-04-06T12:19:19.303Z,7.10
2023-04-06T12:21:46.736Z,20.00
2023-04-06T12:24:14.015Z,3.38
2023-04-06T12:26:42.495Z,1.42
2023-04-06T12:29:09.926Z,1.85
2023-04-06T12:31:40.138Z,1.30
2023-04-06T12:34:08.347Z,1.20
2023-04-06T12:36:35.632Z,1.13
2023-04-06T12:39:03.691Z,0.65
2023-04-06T12:41:31.383Z,1.20
2023-04-06T12:44:00.541Z,0.88
2023-04-06T12:46:28.133Z,0.90
2023-04-06T12:48:56.185Z,1.10
2023-04-06T12:51:24.560Z,0.80
2023-04-06T12:53:55.993Z,1.10
2023-04-06T12:56:23.695Z,0.85
2023-04-06T12:58:54.433Z,0.82
2023-04-06T13:01:22.175Z,1.08
2023-04-06T13:03:49.594Z,0.73
2023-04-06T13:06:17.083Z,0.70
2023-04-06T13:08:44.566Z,1.17
2023-04-06T13:11:11.924Z,1.15
2023-04-06T13:13:39.142Z,1.00
2023-04-06T13:16:09.124Z,0.80
2023-04-06T13:18:39.629Z,1.38
2023-04-06T13:21:07.612Z,0.77
2023-04-06T13:23:35.857Z,0.60
2023-04-06T13:26:06.048Z,0.93
2023-04-06T13:28:41.014Z,0.77
2023-04-06T13:31:09.217Z,0.93
2023-04-06T13:33:36.935Z,0.98
2023-04-06T13:36:04.522Z,0.60
2023-04-06T13:38:32.038Z,1.50
2023-04-06T13:40:59.371Z,0.52
2023-04-06T13:43:28.141Z,1.25
2023-04-06T13:45:57.134Z,1.13
2023-04-06T13:48:24.841Z,0.82
2023-04-06T13:50:52.186Z,0.80
2023-04-06T13:53:19.454Z,0.65
2023-04-06T13:55:54.407Z,0.85
2023-04-06T13:58:21.679Z,1.00
2023-04-06T14:00:49.485Z,1.15
2023-04-06T14:03:17.033Z,1.00
2023-04-06T14:05:45.515Z,0.90
2023-04-06T14:08:12.906Z,1.02
2023-04-06T14:10:42.001Z,1.00
2023-04-06T14:13:09.727Z,1.23
2023-04-06T14:15:37.049Z,1.08
2023-04-06T14:18:04.723Z,1.35
2023-04-06T14:20:35.434Z,0.70
2023-04-06T14:23:03.726Z,1.50
2023-04-06T14:25:35.792Z,0.85
2023-04-06T14:30:32.397Z,0.95
2023-04-06T14:33:00.034Z,1.00
2023-04-06T14:35:29.271Z,0.40
2023-04-06T14:38:02.645Z,1.15
2023-04-06T14:40:37.294Z,1.23
2023-04-06T14:43:05.988Z,0.60
2023-04-06T14:45:37.719Z,0.65
2023-04-06T14:48:10.481Z,1.02
2023-04-06T14:50:43.235Z,0.90
2023-04-06T14:53:11.764Z,1.30
2023-04-06T14:55:42.810Z,1.15
2023-04-06T14:58:10.563Z,1.50
2023-04-06T15:00:40.945Z,1.33
2023-04-06T15:03:20.201Z,2.15
2023-04-06T15:05:47.664Z,1.95
2023-04-06T15:08:16.146Z,1.50
2023-04-06T15:10:43.646Z,1.23
2023-04-06T15:13:10.959Z,1.30
2023-04-06T15:15:38.953Z,1.50
2023-04-06T15:18:06.317Z,1.10
2023-04-06T15:20:34.125Z,1.58
2023-04-06T15:23:02.797Z,1.20
2023-04-06T15:25:31.158Z,0.88
2023-04-06T15:28:08.632Z,1.45
2023-04-06T15:30:38.463Z,1.20
2023-04-06T15:33:08.717Z,1.23
2023-04-06T15:35:40.778Z,0.98
2023-04-06T15:40:42.662Z,2.95
2023-04-06T15:43:12.710Z,3.17
2023-04-06T15:45:43.282Z,2.60
2023-04-06T15:48:10.766Z,1.80
2023-04-06T15:50:38.182Z,1.88
2023-04-06T15:53:05.999Z,1.88
2023-04-06T15:55:33.412Z,1.60
2023-04-06T15:58:00.934Z,2.10
2023-04-06T16:00:28.994Z,1.50
2023-04-06T16:02:57.511Z,1.90
2023-04-06T16:05:26.577Z,1.58
2023-04-06T16:07:55.395Z,1.20
2023-04-06T16:10:22.657Z,1.40
2023-04-06T16:12:49.861Z,1.63
2023-04-06T16:15:17.342Z,1.70
2023-04-06T16:17:47.758Z,1.80
2023-04-06T16:20:16.124Z,1.30
2023-04-06T16:22:43.526Z,1.48
2023-04-06T16:25:12.026Z,1.10
2023-04-06T16:27:39.503Z,1.80
2023-04-06T16:30:08.809Z,1.05
2023-04-06T16:32:36.190Z,1.10
2023-04-06T16:35:04.477Z,1.30
2023-04-06T16:37:31.910Z,1.23
2023-04-06T16:39:59.530Z,1.15
2023-04-06T16:42:27.689Z,1.13
2023-04-06T16:44:57.323Z,1.85
2023-04-06T16:47:24.705Z,1.67
2023-04-06T16:49:53.044Z,2.22
2023-04-06T16:52:20.524Z,1.88
2023-04-06T16:54:48.452Z,1.65
2023-04-06T16:57:40.144Z,1.90
2023-04-06T17:00:09.227Z,2.00
2023-04-06T17:02:37.221Z,1.23
2023-04-06T17:05:04.793Z,1.55
2023-04-06T17:07:33.291Z,1.15
2023-04-06T17:10:03.059Z,1.10
2023-04-06T17:12:30.776Z,1.23
2023-04-06T17:15:00.192Z,1.60
2023-04-06T17:17:27.668Z,1.50
2023-04-06T17:19:55.109Z,1.92
2023-04-06T17:22:22.296Z,2.10
2023-04-06T17:24:49.720Z,2.30
2023-04-06T17:27:17.560Z,1.98
2023-04-06T17:29:45.108Z,1.45
2023-04-06T17:32:13.026Z,1.48
2023-04-06T17:34:40.464Z,1.23
2023-04-06T17:37:08.110Z,1.50
2023-04-06T17:39:35.770Z,1.40
2023-04-06T17:42:04.957Z,1.58
2023-04-06T17:44:33.180Z,1.25
2023-04-06T17:47:00.598Z,1.13
2023-04-06T17:49:27.758Z,1.17
2023-04-06T17:51:54.950Z,0.80
2023-04-06T17:54:22.148Z,1.10
2023-04-06T17:56:49.476Z,0.93
2023-04-06T17:59:16.918Z,1.35
2023-04-06T18:01:44.276Z,1.02
2023-04-06T18:04:11.713Z,0.90
2023-04-06T18:06:38.932Z,1.67
2023-04-06T18:09:06.749Z,2.13
2023-04-06T18:11:33.955Z,2.90
2023-04-06T18:14:01.289Z,1.75
2023-04-06T18:16:28.640Z,2.10
2023-04-06T18:18:56.666Z,1.77
2023-04-06T18:21:23.884Z,1.92
2023-04-06T18:23:51.079Z,1.67
2023-04-06T18:26:19.809Z,1.33
2023-04-06T18:28:49.457Z,1.73
2023-04-06T18:31:16.894Z,1.50
2023-04-06T18:33:44.481Z,1.35
2023-04-06T18:36:11.897Z,1.38
2023-04-06T18:38:45.007Z,1.63
2023-04-06T18:41:12.243Z,1.10
2023-04-06T18:43:40.502Z,1.33
2023-04-06T18:46:13.677Z,1.60
2023-04-06T18:48:42.269Z,1.38
2023-04-06T18:51:09.638Z,1.80
2023-04-06T18:53:39.646Z,1.77
2023-04-06T18:56:18.760Z,1.88
2023-04-06T18:58:48.519Z,1.35
2023-04-06T19:01:29.523Z,1.80
2023-04-06T19:04:00.015Z,2.05
2023-04-06T19:06:28.281Z,1.57
2023-04-06T19:08:56.585Z,1.77
2023-04-06T19:11:25.172Z,1.88
2023-04-06T19:13:59.618Z,1.40
2023-04-06T19:16:43.879Z,2.00
2023-04-06T19:19:11.174Z,2.38
2023-04-06T19:21:40.980Z,2.35
2023-04-06T19:24:08.308Z,2.20
2023-04-06T19:26:35.528Z,1.60
2023-04-06T19:29:02.741Z,2.40
2023-04-06T19:31:29.903Z,2.00
2023-04-06T19:33:57.463Z,2.28
2023-04-06T19:36:28.880Z,2.28
2023-04-06T19:41:57.366Z,2.58
2023-04-06T19:44:24.779Z,3.80
2023-04-06T19:46:56.564Z,4.72
2023-04-06T19:49:24.162Z,4.00
2023-04-06T19:51:51.368Z,3.67
2023-04-06T19:54:20.279Z,4.07
2023-04-06T19:56:48.609Z,4.30
2023-04-06T19:59:21.577Z,4.05
2023-04-06T20:01:49.947Z,3.47
2023-04-06T20:04:20.410Z,4.47
2023-04-06T20:06:53.849Z,2.65
2023-04-06T20:09:22.388Z,2.25
2023-04-06T20:11:58.711Z,2.60
2023-04-06T20:14:41.058Z,2.78
2023-04-06T20:17:31.616Z,2.92
2023-04-06T20:19:59.213Z,3.80
2023-04-06T20:22:29.750Z,2.50
2023-04-06T20:25:04.445Z,3.00
2023-04-06T20:27:32.088Z,3.55
2023-04-06T20:30:03.326Z,4.03
2023-04-06T20:32:31.661Z,3.45
2023-04-06T20:34:59.544Z,3.80
2023-04-06T20:37:38.217Z,4.53
2023-04-06T20:40:09.513Z,4.70
2023-04-06T20:42:42.947Z,5.43
2023-04-06T20:45:15.780Z,4.63
2023-04-06T20:47:53.537Z,4.05
2023-04-06T20:50:22.195Z,3.70
2023-04-06T20:52:49.910Z,3.35
2023-04-06T20:55:17.197Z,3.30
2023-04-06T20:57:55.235Z,3.13
2023-04-06T21:00:22.889Z,3.85
2023-04-06T21:02:51.166Z,3.42
2023-04-06T21:05:20.787Z,3.30
2023-04-06T21:07:54.543Z,3.38
2023-04-06T21:10:28.401Z,3.45
2023-04-06T21:12:57.552Z,3.15
2023-04-06T21:15:28.739Z,3.50
2023-04-06T21:17:59.207Z,4.70
2023-04-06T21:20:26.851Z,4.32
2023-04-06T21:22:59.288Z,3.40
2023-04-06T21:25:36.748Z,3.97
2023-04-06T21:28:13.237Z,3.97
2023-04-06T21:30:43.303Z,4.00
2023-04-06T21:33:24.780Z,3.58
2023-04-06T21:35:54.048Z,3.75
2023-04-06T21:38:21.775Z,3.58
2023-04-06T21:40:56.419Z,4.18
2023-04-06T21:43:29.062Z,3.38
2023-04-06T21:45:56.713Z,3.85
2023-04-06T21:48:23.985Z,4.32
2023-04-06T21:51:00.957Z,4.00
2023-04-06T21:53:30.887Z,3.90
2023-04-06T21:56:04.786Z,3.05
2023-04-06T21:58:35.832Z,3.33
2023-04-06T22:01:03.563Z,3.05
2023-04-06T22:03:35.244Z,3.28
2023-04-06T22:06:10.299Z,3.75
2023-04-06T22:08:44.009Z,3.80
2023-04-06T22:11:11.817Z,2.67
2023-04-06T22:13:43.194Z,3.03
2023-04-06T22:16:10.714Z,3.83
2023-04-06T22:18:39.231Z,3.50
2023-04-06T22:21:13.801Z,4.13
2023-04-06T22:23:42.711Z,3.45
2023-04-06T22:26:11.966Z,3.40
2023-04-06T22:28:39.597Z,2.10
2023-04-06T22:31:19.953Z,2.63
2023-04-06T22:33:49.536Z,2.50
2023-04-06T22:36:20.065Z,2.28
2023-04-06T22:38:55.392Z,2.28
2023-04-06T22:41:23.409Z,1.42
2023-04-06T22:43:54.372Z,1.63
2023-04-06T22:46:22.758Z,1.50
2023-04-06T22:48:50.530Z,1.90
2023-04-06T22:51:23.685Z,1.80
2023-04-06T22:53:58.043Z,2.10
2023-04-06T22:56:40.963Z,2.05
2023-04-06T22:59:12.722Z,1.85
2023-04-06T23:01:42.360Z,2.30
2023-04-06T23:04:16.702Z,1.70
2023-04-06T23:06:55.504Z,1.98
2023-04-06T23:09:31.840Z,1.83
2023-04-06T23:12:09.620Z,1.63
2023-04-06T23:14:55.230Z,1.55
2023-04-06T23:17:29.627Z,2.40
2023-04-06T23:19:56.976Z,2.03
2023-04-06T23:22:24.490Z,1.70
2023-04-06T23:24:51.808Z,1.40
2023-04-06T23:27:22.437Z,1.77
2023-04-06T23:29:50.027Z,1.80
2023-04-06T23:32:32.498Z,1.35
2023-04-06T23:37:30.411Z,1.10
2023-04-06T23:40:05.715Z,1.58
2023-04-06T23:42:38.527Z,1.70
2023-04-06T23:45:09.920Z,1.02
2023-04-06T23:47:37.137Z,1.23
2023-04-06T23:50:06.769Z,1.25
2023-04-06T23:52:35.106Z,1.50
2023-04-06T23:55:05.290Z,1.52
2023-04-06T23:57:32.584Z,1.40
